createdAt,value
2019-01-10T00:01:02.588Z,3.10
2019-01-10T00:03:32.453Z,3.10
2019-01-10T00:06:02.476Z,3.10
2019-01-10T00:08:32.349Z,3.10
2019-01-10T00:11:02.161Z,3.00
2019-01-10T00:13:34.311Z,3.00
2019-01-10T00:16:04.507Z,3.00
2019-01-10T00:18:35.763Z,3.00
2019-01-10T00:21:06.039Z,3.00
2019-01-10T00:23:35.899Z,3.00
2019-01-10T00:26:05.593Z,3.00
2019-01-10T00:28:36.845Z,3.00
2019-01-10T00:31:06.927Z,3.00
2019-01-10T00:33:37.191Z,3.00
2019-01-10T00:36:07.359Z,2.90
2019-01-10T00:38:37.437Z,2.90
2019-01-10T00:41:07.065Z,2.90
2019-01-10T00:43:37.276Z,2.90
2019-01-10T00:46:06.922Z,2.90
2019-01-10T00:48:37.309Z,2.90
2019-01-10T00:51:07.241Z,2.90
2019-01-10T00:53:37.200Z,2.90
2019-01-10T00:56:07.276Z,2.90
2019-01-10T00:58:37.437Z,2.90
2019-01-10T01:01:10.209Z,2.90
2019-01-10T01:03:40.609Z,2.80
2019-01-10T01:06:12.385Z,2.80
2019-01-10T01:08:43.087Z,2.80
2019-01-10T01:11:14.976Z,2.80
2019-01-10T01:13:45.008Z,2.80
2019-01-10T01:16:15.527Z,2.80
2019-01-10T01:18:45.529Z,2.80
2019-01-10T01:21:15.369Z,2.80
2019-01-10T01:23:45.622Z,2.80
2019-01-10T01:26:15.930Z,2.70
2019-01-10T01:28:46.167Z,2.80
2019-01-10T01:31:16.253Z,2.80
2019-01-10T01:33:46.143Z,2.80
2019-01-10T01:36:16.417Z,2.70
2019-01-10T01:38:46.247Z,2.70
2019-01-10T01:41:16.308Z,2.70
2019-01-10T01:43:46.698Z,2.70
2019-01-10T01:46:17.929Z,2.70
2019-01-10T01:48:48.414Z,2.70
2019-01-10T01:51:19.173Z,2.80
2019-01-10T01:53:50.611Z,2.80
2019-01-10T01:56:21.168Z,2.70
2019-01-10T01:58:51.322Z,2.70
2019-01-10T02:01:23.135Z,2.70
2019-01-10T02:03:53.509Z,2.70
2019-01-10T02:06:23.482Z,2.70
2019-01-10T02:08:53.321Z,2.70
2019-01-10T02:11:23.596Z,2.70
2019-01-10T02:13:53.649Z,2.70
2019-01-10T02:16:23.556Z,2.70
2019-01-10T02:18:53.790Z,2.80
2019-01-10T02:21:23.954Z,2.70
2019-01-10T02:23:54.479Z,2.70
2019-01-10T02:26:24.209Z,2.70
2019-01-10T02:28:54.038Z,2.70
2019-01-10T02:31:25.187Z,2.70
2019-01-10T02:33:54.886Z,2.70
2019-01-10T02:36:24.834Z,2.70
2019-01-10T02:38:57.210Z,2.70
2019-01-10T02:41:27.477Z,2.70
2019-01-10T02:43:57.373Z,2.70
2019-01-10T02:46:27.602Z,2.70
2019-01-10T02:48:57.603Z,2.70
2019-01-10T02:51:27.943Z,2.70
2019-01-10T02:53:57.941Z,2.60
2019-01-10T02:56:27.800Z,2.60
2019-01-10T02:58:57.677Z,2.60
2019-01-10T03:01:27.668Z,2.60
2019-01-10T03:03:57.561Z,2.60
2019-01-10T03:06:27.893Z,2.60
2019-01-10T03:08:57.828Z,2.60
2019-01-10T03:11:27.896Z,2.60
2019-01-10T03:13:58.166Z,2.60
2019-01-10T03:16:28.077Z,2.60
2019-01-10T03:18:58.014Z,2.60
2019-01-10T03:21:27.809Z,2.60
2019-01-10T03:23:57.749Z,2.50
2019-01-10T03:26:27.449Z,2.50
2019-01-10T03:28:59.547Z,2.50
2019-01-10T03:31:29.412Z,2.50
2019-01-10T03:33:59.509Z,2.50
2019-01-10T03:36:29.429Z,2.40
2019-01-10T03:38:59.280Z,2.50
2019-01-10T03:41:29.183Z,2.40
2019-01-10T03:43:59.785Z,2.40
2019-01-10T03:46:29.654Z,2.50
2019-01-10T03:48:59.777Z,2.50
2019-01-10T03:51:29.758Z,2.40
2019-01-10T03:54:02.330Z,2.40
2019-01-10T03:56:32.273Z,2.40
2019-01-10T03:59:02.112Z,2.40
2019-01-10T04:01:32.129Z,2.40
2019-01-10T04:04:01.910Z,2.40
2019-01-10T04:06:31.870Z,2.40
2019-01-10T04:09:01.822Z,2.40
2019-01-10T04:11:31.801Z,2.40
2019-01-10T04:14:01.850Z,2.40
2019-01-10T04:16:32.025Z,2.40
2019-01-10T04:19:01.881Z,2.40
2019-01-10T04:21:32.151Z,2.40
2019-01-10T04:24:01.822Z,2.40
2019-01-10T04:26:31.955Z,2.40
2019-01-10T04:29:01.838Z,2.30
2019-01-10T04:31:31.873Z,2.30
2019-01-10T04:34:02.189Z,2.30
2019-01-10T04:36:32.045Z,2.30
2019-01-10T04:39:13.506Z,2.30
2019-01-10T04:41:43.381Z,2.40
2019-01-10T04:44:13.261Z,2.40
2019-01-10T04:46:44.994Z,2.40
2019-01-10T04:49:14.806Z,2.40
2019-01-10T04:51:45.313Z,2.40
2019-01-10T04:54:15.120Z,2.30
2019-01-10T04:56:45.109Z,2.40
2019-01-10T04:59:14.955Z,2.40
2019-01-10T05:01:44.746Z,2.40
2019-01-10T05:04:14.709Z,2.40
2019-01-10T05:06:44.617Z,2.40
2019-01-10T05:09:14.697Z,2.40
2019-01-10T05:11:44.589Z,2.40
2019-01-10T05:14:16.581Z,2.40
2019-01-10T05:16:45.970Z,2.40
2019-01-10T05:19:20.323Z,2.40
2019-01-10T05:21:50.181Z,2.40
2019-01-10T05:24:21.808Z,2.40
2019-01-10T05:26:51.786Z,2.40
2019-01-10T05:29:24.156Z,2.40
2019-01-10T05:31:54.021Z,2.50
2019-01-10T05:34:23.885Z,2.50
2019-01-10T05:36:53.739Z,2.50
2019-01-10T05:39:23.561Z,2.50
2019-01-10T05:41:53.541Z,2.50
2019-01-10T05:44:26.772Z,2.50
2019-01-10T05:46:55.638Z,2.50
2019-01-10T05:49:25.745Z,2.40
2019-01-10T05:51:56.005Z,2.40
2019-01-10T05:54:26.279Z,2.30
2019-01-10T05:56:56.592Z,2.30
2019-01-10T05:59:26.686Z,2.30
2019-01-10T06:01:56.572Z,2.30
2019-01-10T06:04:26.693Z,2.30
2019-01-10T06:06:56.981Z,2.30
2019-01-10T06:09:28.805Z,2.30
2019-01-10T06:11:59.283Z,2.30
2019-01-10T06:14:35.527Z,2.30
2019-01-10T06:17:01.408Z,2.20
2019-01-10T06:19:31.525Z,2.20
2019-01-10T06:22:01.577Z,2.20
2019-01-10T06:24:33.119Z,2.20
2019-01-10T06:27:03.397Z,2.20
2019-01-10T06:29:33.888Z,2.20
2019-01-10T06:32:04.064Z,2.20
2019-01-10T06:34:34.390Z,2.20
2019-01-10T06:37:04.540Z,2.20
2019-01-10T06:39:34.603Z,2.20
2019-01-10T06:42:04.691Z,2.20
2019-01-10T06:44:44.356Z,2.20
2019-01-10T06:47:07.479Z,2.20
2019-01-10T06:49:37.736Z,2.30
2019-01-10T06:52:07.743Z,2.20
2019-01-10T06:54:37.986Z,2.20
2019-01-10T06:57:08.105Z,2.20
2019-01-10T06:59:38.384Z,2.20
2019-01-10T07:02:08.644Z,2.20
2019-01-10T07:04:39.031Z,2.20
2019-01-10T07:07:08.967Z,2.20
2019-01-10T07:09:39.016Z,2.10
2019-01-10T07:12:09.080Z,2.10
2019-01-10T07:14:39.713Z,2.10
2019-01-10T07:17:10.089Z,2.10
2019-01-10T07:19:45.625Z,2.10
2019-01-10T07:22:17.362Z,2.00
2019-01-10T07:24:52.195Z,2.10
2019-01-10T07:27:22.687Z,2.10
2019-01-10T07:29:59.340Z,2.10
2019-01-10T07:32:28.887Z,2.00
2019-01-10T07:35:03.246Z,2.00
2019-01-10T07:37:33.567Z,2.00
2019-01-10T07:40:04.278Z,2.00
2019-01-10T07:42:34.871Z,2.00
2019-01-10T07:45:10.267Z,1.90
2019-01-10T07:47:50.374Z,2.00
2019-01-10T07:50:24.637Z,1.90
2019-01-10T07:52:55.265Z,2.00
2019-01-10T07:55:25.281Z,2.00
2019-01-10T07:57:55.587Z,2.00
2019-01-10T08:00:25.522Z,2.00
2019-01-10T08:02:55.487Z,2.00
2019-01-10T08:05:26.100Z,2.00
2019-01-10T08:07:57.712Z,2.00
2019-01-10T08:10:28.302Z,2.00
2019-01-10T08:12:58.545Z,2.00
2019-01-10T08:15:28.839Z,2.00
2019-01-10T08:17:59.481Z,2.00
2019-01-10T08:20:29.944Z,2.10
2019-01-10T08:23:00.240Z,2.10
2019-01-10T08:25:30.521Z,2.20
2019-01-10T08:28:00.707Z,2.20
2019-01-10T08:30:47.712Z,2.20
2019-01-10T08:33:18.056Z,2.20
2019-01-10T08:35:48.185Z,2.10
2019-01-10T08:38:20.326Z,2.20
2019-01-10T08:40:50.478Z,2.10
2019-01-10T08:43:20.857Z,2.10
2019-01-10T08:45:51.038Z,2.10
2019-01-10T08:48:21.533Z,2.10
2019-01-10T08:50:52.212Z,2.10
2019-01-10T08:53:22.342Z,2.10
2019-01-10T08:55:52.616Z,2.20
2019-01-10T08:58:24.634Z,2.30
2019-01-10T09:00:55.299Z,2.30
2019-01-10T09:03:27.848Z,2.30
2019-01-10T09:06:07.753Z,2.30
2019-01-10T09:08:30.064Z,2.30
2019-01-10T09:11:01.530Z,2.30
2019-01-10T09:13:31.711Z,2.40
2019-01-10T09:16:01.958Z,2.40
2019-01-10T09:18:32.170Z,2.40
2019-01-10T09:21:04.538Z,2.40
2019-01-10T09:23:34.641Z,2.30
2019-01-10T09:26:04.703Z,2.40
2019-01-10T09:28:34.646Z,2.30
2019-01-10T09:31:04.933Z,2.30
2019-01-10T09:33:35.120Z,2.30
2019-01-10T09:36:05.387Z,2.20
2019-01-10T09:38:35.429Z,2.30
2019-01-10T09:41:07.749Z,2.30
2019-01-10T09:43:37.871Z,2.40
2019-01-10T09:46:08.036Z,2.40
2019-01-10T09:48:38.185Z,2.40
2019-01-10T09:51:08.391Z,2.40
2019-01-10T09:53:38.623Z,2.50
2019-01-10T09:56:09.238Z,2.50
2019-01-10T09:58:39.200Z,2.50
2019-01-10T10:01:09.178Z,2.40
2019-01-10T10:03:39.451Z,2.50
2019-01-10T10:06:09.799Z,2.50
2019-01-10T10:08:39.970Z,2.50
2019-01-10T10:11:10.163Z,2.60
2019-01-10T10:13:40.448Z,2.70
2019-01-10T10:16:10.708Z,2.90
2019-01-10T10:18:40.754Z,3.00
2019-01-10T10:21:10.548Z,3.00
2019-01-10T10:23:40.567Z,3.10
2019-01-10T10:26:10.752Z,3.10
2019-01-10T10:28:41.783Z,3.10
2019-01-10T10:31:12.051Z,3.20
2019-01-10T10:33:42.213Z,3.20
2019-01-10T10:36:12.812Z,3.30
2019-01-10T10:38:43.084Z,3.30
2019-01-10T10:41:12.904Z,3.30
2019-01-10T10:43:42.868Z,3.30
2019-01-10T10:46:13.310Z,3.30
2019-01-10T10:48:43.457Z,3.30
2019-01-10T10:51:13.721Z,3.50
2019-01-10T10:53:44.118Z,3.60
2019-01-10T10:56:13.929Z,3.60
2019-01-10T10:58:44.102Z,3.60
2019-01-10T11:01:14.173Z,3.50
2019-01-10T11:03:44.888Z,3.40
2019-01-10T11:06:15.086Z,3.40
2019-01-10T11:08:45.109Z,3.40
2019-01-10T11:11:15.429Z,3.50
2019-01-10T11:13:45.546Z,3.60
2019-01-10T11:16:15.287Z,3.50
2019-01-10T11:18:45.264Z,3.60
2019-01-10T11:21:15.362Z,3.60
2019-01-10T11:23:45.767Z,3.70
2019-01-10T11:26:16.254Z,3.70
2019-01-10T11:28:46.743Z,3.80
2019-01-10T11:31:17.121Z,3.80
2019-01-10T11:33:47.442Z,3.60
2019-01-10T11:36:17.353Z,3.60
2019-01-10T11:38:47.747Z,3.50
2019-01-10T11:41:18.089Z,3.60
2019-01-10T11:43:48.168Z,3.60
2019-01-10T11:46:19.741Z,3.70
2019-01-10T11:48:51.154Z,3.80
2019-01-10T11:51:21.702Z,3.80
2019-01-10T11:53:53.789Z,3.80
2019-01-10T11:56:24.209Z,3.90
2019-01-10T11:58:54.564Z,4.00
2019-01-10T12:01:24.731Z,3.90
2019-01-10T12:03:55.183Z,3.90
2019-01-10T12:06:25.293Z,3.90
2019-01-10T12:08:56.705Z,4.00
2019-01-10T12:11:26.849Z,3.90
2019-01-10T12:13:57.552Z,3.90
2019-01-10T12:16:28.610Z,3.90
2019-01-10T12:18:59.435Z,3.90
2019-01-10T12:21:30.291Z,4.10
2019-01-10T12:24:00.733Z,4.20
2019-01-10T12:26:31.071Z,4.30
2019-01-10T12:29:01.402Z,4.40
2019-01-10T12:31:32.036Z,4.40
2019-01-10T12:34:02.034Z,4.20
2019-01-10T12:36:32.305Z,4.00
2019-01-10T12:39:03.544Z,3.90
2019-01-10T12:41:33.801Z,3.90
2019-01-10T12:44:06.428Z,3.90
2019-01-10T12:46:37.591Z,4.00
2019-01-10T12:49:07.886Z,4.10
2019-01-10T12:51:38.260Z,4.20
2019-01-10T12:54:08.453Z,4.20
2019-01-10T12:56:38.970Z,4.10
2019-01-10T12:59:09.586Z,4.00
2019-01-10T13:01:39.708Z,4.00
2019-01-10T13:04:10.140Z,4.00
2019-01-10T13:06:40.729Z,4.10
2019-01-10T13:09:10.877Z,4.10
2019-01-10T13:11:40.814Z,4.10
2019-01-10T13:14:11.596Z,4.10
2019-01-10T13:16:46.792Z,4.00
2019-01-10T13:19:13.469Z,4.00
2019-01-10T13:21:43.748Z,4.00
2019-01-10T13:24:14.327Z,4.00
2019-01-10T13:26:44.367Z,3.90
2019-01-10T13:29:14.420Z,3.90
2019-01-10T13:31:44.730Z,3.90
2019-01-10T13:34:15.316Z,4.00
2019-01-10T13:36:45.375Z,3.90
2019-01-10T13:39:16.399Z,3.80
2019-01-10T13:41:46.740Z,3.80
2019-01-10T13:44:17.246Z,3.70
2019-01-10T13:46:55.423Z,3.70
2019-01-10T13:49:19.737Z,3.60
2019-01-10T13:51:52.559Z,3.70
2019-01-10T13:54:22.958Z,3.70
2019-01-10T13:56:53.580Z,3.80
2019-01-10T13:59:23.974Z,3.90
2019-01-10T14:01:54.015Z,3.90
2019-01-10T14:04:24.149Z,3.80
2019-01-10T14:06:54.246Z,3.60
2019-01-10T14:09:24.711Z,3.50
2019-01-10T14:11:57.905Z,3.50
2019-01-10T14:14:28.127Z,3.50
2019-01-10T14:17:01.695Z,3.50
2019-01-10T14:19:30.491Z,3.50
2019-01-10T14:22:01.749Z,3.50
2019-01-10T14:24:31.969Z,3.40
2019-01-10T14:27:01.920Z,3.50
2019-01-10T14:29:32.370Z,3.40
2019-01-10T14:32:02.360Z,3.30
2019-01-10T14:34:32.828Z,3.30
2019-01-10T14:37:03.588Z,3.30
2019-01-10T14:39:34.010Z,3.30
2019-01-10T14:42:05.845Z,3.20
2019-01-10T14:44:36.303Z,3.20
2019-01-10T14:47:07.741Z,3.20
2019-01-10T14:49:38.169Z,3.20
2019-01-10T14:52:17.613Z,3.20
2019-01-10T14:54:48.206Z,3.10
2019-01-10T14:57:18.668Z,3.10
2019-01-10T14:59:48.843Z,3.00
2019-01-10T15:02:19.075Z,3.00
2019-01-10T15:04:49.452Z,3.00
2019-01-10T15:07:19.777Z,3.00
2019-01-10T15:09:49.948Z,3.00
2019-01-10T15:12:20.580Z,2.90
2019-01-10T15:14:51.007Z,3.00
2019-01-10T15:17:21.369Z,3.00
2019-01-10T15:19:51.647Z,3.00
2019-01-10T15:22:22.207Z,2.90
2019-01-10T15:24:52.731Z,2.80
2019-01-10T15:27:23.744Z,2.80
2019-01-10T15:29:53.899Z,2.80
2019-01-10T15:32:24.045Z,2.70
2019-01-10T15:34:54.460Z,2.70
2019-01-10T15:37:24.317Z,2.70
2019-01-10T15:39:54.672Z,2.70
2019-01-10T15:42:24.633Z,2.60
2019-01-10T15:44:55.273Z,2.60
2019-01-10T15:47:25.901Z,2.60
2019-01-10T15:49:56.167Z,2.60
2019-01-10T15:52:26.453Z,2.50
2019-01-10T15:54:56.661Z,2.50
2019-01-10T15:57:26.750Z,2.50
2019-01-10T15:59:57.366Z,2.60
2019-01-10T16:02:28.115Z,2.60
2019-01-10T16:04:58.254Z,2.60
2019-01-10T16:07:28.783Z,2.60
2019-01-10T16:09:58.964Z,2.60
2019-01-10T16:12:29.200Z,2.60
2019-01-10T16:15:02.530Z,2.60
2019-01-10T16:17:32.847Z,2.60
2019-01-10T16:20:03.326Z,2.60
2019-01-10T16:22:33.579Z,2.50
2019-01-10T16:25:06.772Z,2.60
2019-01-10T16:27:37.126Z,2.60
2019-01-10T16:30:16.650Z,2.60
2019-01-10T16:32:47.285Z,2.50
2019-01-10T16:35:17.988Z,2.50
2019-01-10T16:37:48.957Z,2.50
2019-01-10T16:40:19.628Z,2.50
2019-01-10T16:42:50.114Z,2.50
2019-01-10T16:45:25.478Z,2.50
2019-01-10T16:47:55.894Z,2.50
2019-01-10T16:50:26.259Z,2.50
2019-01-10T16:52:57.731Z,2.50
2019-01-10T16:55:28.329Z,2.50
2019-01-10T16:57:58.853Z,2.40
2019-01-10T17:00:31.223Z,2.40
2019-01-10T17:03:01.901Z,2.40
2019-01-10T17:05:32.705Z,2.40
2019-01-10T17:08:03.294Z,2.40
2019-01-10T17:10:33.815Z,2.40
2019-01-10T17:13:05.722Z,2.40
2019-01-10T17:15:36.769Z,2.40
2019-01-10T17:18:09.627Z,2.40
2019-01-10T17:20:39.926Z,2.40
2019-01-10T17:23:10.375Z,2.40
2019-01-10T17:25:41.379Z,2.40
2019-01-10T17:28:12.006Z,2.40
2019-01-10T17:30:42.756Z,2.40
2019-01-10T17:33:13.253Z,2.40
2019-01-10T17:35:43.743Z,2.40
2019-01-10T17:38:14.290Z,2.40
2019-01-10T17:40:45.266Z,2.40
2019-01-10T17:43:15.724Z,2.40
2019-01-10T17:45:46.337Z,2.40
2019-01-10T17:48:16.766Z,2.30
2019-01-10T17:50:47.231Z,2.30
2019-01-10T17:53:17.847Z,2.40
2019-01-10T17:55:48.446Z,2.40
2019-01-10T17:58:19.341Z,2.40
2019-01-10T18:00:49.869Z,2.40
2019-01-10T18:03:20.360Z,2.40
2019-01-10T18:05:50.925Z,2.40
2019-01-10T18:08:21.607Z,2.40
2019-01-10T18:10:52.197Z,2.40
2019-01-10T18:13:22.756Z,2.40
2019-01-10T18:15:53.420Z,2.30
2019-01-10T18:18:23.993Z,2.40
2019-01-10T18:20:54.681Z,2.40
2019-01-10T18:23:25.180Z,2.30
2019-01-10T18:25:56.118Z,2.30
2019-01-10T18:28:26.657Z,2.20
2019-01-10T18:30:57.351Z,2.20
2019-01-10T18:33:27.761Z,2.10
2019-01-10T18:35:58.209Z,2.10
2019-01-10T18:38:28.687Z,2.10
2019-01-10T18:40:59.271Z,2.10
2019-01-10T18:43:30.119Z,2.20
2019-01-10T18:46:00.615Z,2.20
2019-01-10T18:48:31.024Z,2.20
2019-01-10T18:51:01.480Z,2.20
2019-01-10T18:53:32.425Z,2.30
2019-01-10T18:56:03.454Z,2.30
2019-01-10T18:58:34.029Z,2.30
2019-01-10T19:01:04.598Z,2.30
2019-01-10T19:03:36.294Z,2.30
2019-01-10T19:06:06.900Z,2.30
2019-01-10T19:08:37.645Z,2.40
2019-01-10T19:11:07.870Z,2.40
2019-01-10T19:13:38.695Z,2.40
2019-01-10T19:16:09.147Z,2.40
2019-01-10T19:18:41.629Z,2.40
2019-01-10T19:21:12.205Z,2.40
2019-01-10T19:23:44.092Z,2.40
2019-01-10T19:26:14.380Z,2.50
2019-01-10T19:28:44.749Z,2.50
2019-01-10T19:31:15.005Z,2.50
2019-01-10T19:33:45.418Z,2.50
2019-01-10T19:36:18.111Z,2.50
2019-01-10T19:38:48.781Z,2.50
2019-01-10T19:41:19.351Z,2.50
2019-01-10T19:43:49.800Z,2.50
2019-01-10T19:46:20.598Z,2.50
2019-01-10T19:48:50.970Z,2.50
2019-01-10T19:51:21.455Z,2.50
2019-01-10T19:53:51.811Z,2.50
2019-01-10T19:56:22.350Z,2.50
2019-01-10T19:58:55.211Z,2.50
2019-01-10T20:01:27.848Z,2.50
2019-01-10T20:03:58.260Z,2.50
2019-01-10T20:06:28.896Z,2.50
2019-01-10T20:08:59.431Z,2.50
2019-01-10T20:11:30.022Z,2.50
2019-01-10T20:14:01.729Z,2.50
2019-01-10T20:16:32.185Z,2.50
2019-01-10T20:19:06.492Z,2.50
2019-01-10T20:21:37.137Z,2.50
2019-01-10T20:24:07.629Z,2.50
2019-01-10T20:26:38.966Z,2.50
2019-01-10T20:29:09.516Z,2.50
2019-01-10T20:31:40.795Z,2.60
2019-01-10T20:34:11.347Z,2.60
2019-01-10T20:36:42.386Z,2.60
2019-01-10T20:39:13.125Z,2.60
2019-01-10T20:41:43.470Z,2.70
2019-01-10T20:44:13.967Z,2.70
2019-01-10T20:46:44.505Z,2.70
2019-01-10T20:49:15.010Z,2.70
2019-01-10T20:51:45.854Z,2.70
2019-01-10T20:54:16.589Z,2.70
2019-01-10T20:56:47.340Z,2.70
2019-01-10T20:59:17.918Z,2.70
2019-01-10T21:01:48.234Z,2.70
2019-01-10T21:04:19.275Z,2.70
2019-01-10T21:06:49.664Z,2.70
2019-01-10T21:09:20.485Z,2.70
2019-01-10T21:11:51.149Z,2.70
2019-01-10T21:14:21.661Z,2.70
2019-01-10T21:16:52.032Z,2.70
2019-01-10T21:19:22.337Z,2.70
2019-01-10T21:21:53.443Z,2.70
2019-01-10T21:24:23.827Z,2.70
2019-01-10T21:26:54.189Z,2.70
2019-01-10T21:29:24.998Z,2.70
2019-01-10T21:31:55.114Z,2.70
2019-01-10T21:34:25.766Z,2.80
2019-01-10T21:36:56.193Z,2.80
2019-01-10T21:39:26.669Z,2.80
2019-01-10T21:42:01.339Z,2.80
2019-01-10T21:44:32.108Z,2.80
2019-01-10T21:47:03.355Z,2.80
2019-01-10T21:49:33.721Z,2.80
2019-01-10T21:52:04.393Z,2.80
2019-01-10T21:54:35.519Z,2.90
2019-01-10T21:57:07.221Z,2.90
2019-01-10T21:59:37.571Z,2.90
2019-01-10T22:02:08.428Z,2.90
2019-01-10T22:04:38.631Z,3.00
2019-01-10T22:07:08.972Z,3.00
2019-01-10T22:09:39.341Z,3.00
2019-01-10T22:12:09.408Z,3.00
2019-01-10T22:14:39.323Z,2.90
2019-01-10T22:17:09.501Z,3.00
2019-01-10T22:19:39.413Z,2.90
2019-01-10T22:22:10.983Z,2.90
2019-01-10T22:24:40.985Z,3.00
2019-01-10T22:27:11.171Z,2.90
2019-01-10T22:29:41.020Z,3.00
2019-01-10T22:32:11.186Z,3.00
2019-01-10T22:34:41.215Z,3.00
2019-01-10T22:37:13.025Z,2.90
2019-01-10T22:39:43.232Z,2.90
2019-01-10T22:42:13.296Z,3.00
2019-01-10T22:44:43.256Z,2.90
2019-01-10T22:47:13.282Z,2.90
2019-01-10T22:49:44.350Z,2.90
2019-01-10T22:52:15.936Z,2.90
2019-01-10T22:54:45.953Z,2.80
2019-01-10T22:57:16.085Z,2.80
2019-01-10T22:59:46.113Z,2.70
2019-01-10T23:02:16.177Z,2.80
2019-01-10T23:04:46.329Z,2.70
2019-01-10T23:07:20.101Z,2.70
2019-01-10T23:09:51.209Z,2.80
2019-01-10T23:12:22.645Z,2.70
2019-01-10T23:14:53.017Z,2.70
2019-01-10T23:17:24.712Z,2.70
2019-01-10T23:19:54.825Z,2.60
2019-01-10T23:22:27.085Z,2.60
2019-01-10T23:24:58.052Z,2.60
2019-01-10T23:27:28.252Z,2.60
2019-01-10T23:29:58.531Z,2.60
2019-01-10T23:32:29.176Z,2.60
2019-01-10T23:34:59.121Z,2.50
2019-01-10T23:37:31.665Z,2.60
2019-01-10T23:40:01.682Z,2.60
2019-01-10T23:42:31.642Z,2.50
2019-01-10T23:45:01.524Z,2.50
2019-01-10T23:47:31.746Z,2.40
2019-01-10T23:50:02.036Z,2.40
2019-01-10T23:52:33.833Z,2.40
2019-01-10T23:55:04.753Z,2.30
2019-01-10T23:57:34.886Z,2.40
